createdAt,value
2022-08-26T00:00:20.051Z,15.20
2022-08-26T00:02:48.563Z,14.63
2022-08-26T00:05:18.744Z,15.30
2022-08-26T00:07:47.421Z,15.80
2022-08-26T00:10:15.984Z,15.87
2022-08-26T00:12:44.468Z,16.63
2022-08-26T00:15:15.030Z,16.07
2022-08-26T00:17:43.473Z,14.33
2022-08-26T00:20:14.022Z,16.10
2022-08-26T00:22:44.186Z,17.80
2022-08-26T00:25:13.277Z,19.13
2022-08-26T00:27:43.975Z,17.20
2022-08-26T00:30:14.772Z,14.63
2022-08-26T00:32:44.075Z,15.30
2022-08-26T00:35:14.850Z,17.70
2022-08-26T00:37:45.035Z,19.50
2022-08-26T00:40:17.988Z,21.57
2022-08-26T00:42:46.426Z,22.60
2022-08-26T00:45:17.224Z,18.27
2022-08-26T00:47:48.409Z,16.27
2022-08-26T00:50:22.454Z,16.33
2022-08-26T00:52:53.456Z,16.50
2022-08-26T00:55:25.506Z,22.10
2022-08-26T00:58:03.825Z,16.27
2022-08-26T01:00:33.322Z,17.97
2022-08-26T01:03:03.192Z,16.93
2022-08-26T01:05:33.764Z,15.43
2022-08-26T01:08:03.689Z,18.70
2022-08-26T01:10:32.502Z,16.70
2022-08-26T01:13:09.959Z,19.40
2022-08-26T01:15:39.475Z,18.73
2022-08-26T01:18:10.718Z,15.90
2022-08-26T01:20:48.286Z,15.70
2022-08-26T01:23:18.403Z,13.53
2022-08-26T01:25:54.249Z,18.90
2022-08-26T01:28:25.275Z,15.90
2022-08-26T01:30:56.095Z,15.63
2022-08-26T01:33:29.530Z,15.70
2022-08-26T01:35:58.116Z,16.77
2022-08-26T01:38:28.847Z,15.77
2022-08-26T01:41:00.295Z,15.20
2022-08-26T01:43:30.543Z,16.17
2022-08-26T01:45:59.886Z,19.23
2022-08-26T01:48:32.626Z,18.10
2022-08-26T01:51:01.497Z,20.33
2022-08-26T01:53:31.825Z,18.30
2022-08-26T01:56:02.252Z,19.33
2022-08-26T01:58:36.138Z,16.13
2022-08-26T02:01:04.573Z,22.20
2022-08-26T02:03:33.478Z,16.33
2022-08-26T02:06:09.434Z,21.13
2022-08-26T02:08:42.322Z,20.90
2022-08-26T02:11:11.052Z,17.57
2022-08-26T02:13:42.658Z,14.87
2022-08-26T02:16:11.263Z,17.10
2022-08-26T02:18:43.147Z,19.93
2022-08-26T02:21:13.649Z,18.63
2022-08-26T02:23:43.615Z,14.40
2022-08-26T02:26:17.883Z,18.20
2022-08-26T02:28:51.300Z,15.70
2022-08-26T02:31:20.402Z,17.67
2022-08-26T02:33:49.336Z,20.70
2022-08-26T02:36:21.368Z,15.10
2022-08-26T02:38:51.008Z,21.63
2022-08-26T02:41:20.422Z,18.03
2022-08-26T02:43:51.497Z,19.50
2022-08-26T02:46:27.711Z,15.37
2022-08-26T02:48:58.043Z,16.83
2022-08-26T02:51:26.535Z,16.77
2022-08-26T02:53:56.908Z,15.53
2022-08-26T02:56:25.551Z,18.47
2022-08-26T02:58:53.868Z,17.40
2022-08-26T03:01:24.481Z,17.57
2022-08-26T03:03:52.996Z,18.93
2022-08-26T03:06:21.708Z,25.00
2022-08-26T03:08:50.826Z,20.13
2022-08-26T03:11:21.617Z,22.50
2022-08-26T03:13:50.287Z,21.30
2022-08-26T03:16:19.342Z,21.77
2022-08-26T03:18:52.441Z,18.70
2022-08-26T03:21:21.296Z,18.50
2022-08-26T03:23:49.925Z,20.60
2022-08-26T03:26:18.606Z,20.10
2022-08-26T03:29:06.168Z,18.80
2022-08-26T03:31:34.868Z,17.33
2022-08-26T03:34:03.622Z,17.03
2022-08-26T03:36:32.446Z,18.93
2022-08-26T03:39:03.562Z,14.70
2022-08-26T03:41:32.729Z,17.80
2022-08-26T03:44:02.645Z,20.03
2022-08-26T03:46:33.005Z,21.80
2022-08-26T03:49:02.178Z,16.87
2022-08-26T03:51:31.631Z,16.87
2022-08-26T03:54:03.044Z,22.20
2022-08-26T03:56:33.289Z,18.57
2022-08-26T03:59:03.202Z,15.43
2022-08-26T04:01:31.739Z,16.80
2022-08-26T04:04:01.563Z,18.37
2022-08-26T04:06:33.776Z,17.17
2022-08-26T04:09:04.241Z,14.20
2022-08-26T04:11:35.875Z,21.10
2022-08-26T04:14:10.917Z,17.00
2022-08-26T04:16:39.311Z,16.03
2022-08-26T04:19:07.753Z,21.60
2022-08-26T04:21:38.202Z,15.80
2022-08-26T04:24:10.289Z,15.37
2022-08-26T04:26:42.747Z,27.33
2022-08-26T04:29:16.360Z,23.60
2022-08-26T04:31:44.849Z,16.80
2022-08-26T04:34:14.035Z,16.83
2022-08-26T04:36:43.136Z,16.27
2022-08-26T04:39:16.588Z,19.77
2022-08-26T04:41:46.947Z,16.43
2022-08-26T04:44:18.732Z,17.20
2022-08-26T04:46:47.120Z,17.33
2022-08-26T04:49:15.560Z,14.87
2022-08-26T04:51:44.052Z,15.80
2022-08-26T04:54:14.119Z,21.00
2022-08-26T04:56:47.410Z,17.50
2022-08-26T04:59:18.597Z,15.97
2022-08-26T05:01:47.881Z,18.47
2022-08-26T05:04:19.076Z,16.70
2022-08-26T05:06:47.765Z,18.80
2022-08-26T05:09:16.287Z,18.40
2022-08-26T05:11:45.593Z,16.73
2022-08-26T05:14:18.921Z,23.33
2022-08-26T05:16:47.949Z,18.53
2022-08-26T05:19:19.130Z,18.43
2022-08-26T05:21:48.336Z,19.37
2022-08-26T05:24:17.782Z,18.07
2022-08-26T05:26:47.244Z,16.70
2022-08-26T05:29:18.290Z,17.10
2022-08-26T05:31:52.202Z,15.67
2022-08-26T05:34:20.808Z,17.10
2022-08-26T05:36:49.537Z,15.93
2022-08-26T05:39:17.984Z,19.53
2022-08-26T05:41:47.633Z,21.63
2022-08-26T05:44:20.989Z,21.20
2022-08-26T05:46:51.644Z,20.07
2022-08-26T05:49:20.317Z,18.70
2022-08-26T05:51:50.926Z,16.97
2022-08-26T05:54:21.371Z,20.77
2022-08-26T05:56:52.343Z,18.43
2022-08-26T05:59:24.094Z,15.90
2022-08-26T06:01:54.720Z,15.13
2022-08-26T06:04:24.919Z,15.30
2022-08-26T06:06:55.869Z,19.47
2022-08-26T06:09:24.331Z,15.10
2022-08-26T06:11:52.876Z,26.77
2022-08-26T06:14:23.863Z,17.50
2022-08-26T06:16:52.120Z,19.00
2022-08-26T06:19:21.654Z,17.30
2022-08-26T06:21:57.473Z,16.80
2022-08-26T06:24:43.378Z,15.03
2022-08-26T06:27:15.242Z,19.87
2022-08-26T06:29:45.111Z,15.80
2022-08-26T06:32:13.231Z,19.37
2022-08-26T06:34:41.804Z,14.20
2022-08-26T06:37:10.192Z,19.57
2022-08-26T06:39:41.150Z,15.80
2022-08-26T06:42:10.924Z,20.73
2022-08-26T06:44:41.484Z,21.97
2022-08-26T06:47:14.692Z,19.93
2022-08-26T06:49:44.331Z,22.27
2022-08-26T06:52:13.220Z,15.77
2022-08-26T06:54:43.216Z,17.13
2022-08-26T06:57:14.741Z,15.47
2022-08-26T06:59:45.301Z,17.37
2022-08-26T07:02:15.233Z,15.90
2022-08-26T07:04:47.764Z,16.20
2022-08-26T07:07:17.048Z,16.73
2022-08-26T07:09:46.783Z,13.93
2022-08-26T07:12:17.830Z,15.83
2022-08-26T07:14:48.183Z,15.63
2022-08-26T07:17:19.327Z,11.87
2022-08-26T07:19:49.909Z,15.63
2022-08-26T07:22:18.765Z,12.63
2022-08-26T07:24:47.541Z,14.87
2022-08-26T07:27:21.766Z,14.70
2022-08-26T07:29:50.544Z,13.93
2022-08-26T07:32:27.365Z,15.53
2022-08-26T07:34:55.872Z,18.70
2022-08-26T07:37:35.458Z,13.53
2022-08-26T07:40:06.529Z,13.33
2022-08-26T07:42:36.566Z,13.57
2022-08-26T07:45:13.767Z,15.77
2022-08-26T07:47:45.781Z,14.90
2022-08-26T07:50:14.430Z,13.40
2022-08-26T07:52:45.953Z,14.60
2022-08-26T07:55:18.464Z,12.23
2022-08-26T07:57:47.851Z,10.43
2022-08-26T08:00:24.640Z,12.30
2022-08-26T08:02:57.897Z,12.93
2022-08-26T08:05:27.274Z,18.03
2022-08-26T08:10:44.977Z,14.10
2022-08-26T08:13:18.980Z,17.60
2022-08-26T08:15:53.509Z,14.10
2022-08-26T08:18:23.640Z,14.27
2022-08-26T08:21:05.183Z,16.27
2022-08-26T08:23:45.967Z,13.20
2022-08-26T08:26:14.352Z,13.93
2022-08-26T08:32:00.096Z,10.53
2022-08-26T08:41:03.445Z,12.10
2022-08-26T08:46:42.447Z,14.27
2022-08-26T08:49:14.811Z,12.20
2022-08-26T09:09:23.603Z,17.67
2022-08-26T09:11:51.718Z,14.07
2022-08-26T09:14:22.043Z,12.50
2022-08-26T09:17:02.523Z,12.93
2022-08-26T09:19:36.001Z,13.20
2022-08-26T09:22:09.385Z,15.23
2022-08-26T09:25:04.533Z,18.83
2022-08-26T09:27:51.003Z,13.50
2022-08-26T09:30:27.011Z,13.60
2022-08-26T09:33:21.316Z,13.97
2022-08-26T09:41:37.029Z,16.30
2022-08-26T09:44:20.713Z,14.83
2022-08-26T09:46:56.152Z,14.60
2022-08-26T09:49:35.531Z,17.47
2022-08-26T09:52:18.734Z,17.90
2022-08-26T09:55:01.429Z,16.20
2022-08-26T09:57:35.645Z,13.70
2022-08-26T10:00:04.765Z,14.70
2022-08-26T10:02:47.798Z,14.67
2022-08-26T10:05:27.711Z,20.07
2022-08-26T10:07:58.376Z,13.47
2022-08-26T10:10:32.695Z,20.30
2022-08-26T10:13:18.822Z,12.60
2022-08-26T10:15:59.990Z,19.47
2022-08-26T10:18:34.093Z,14.90
2022-08-26T10:21:11.959Z,18.00
2022-08-26T10:23:43.454Z,17.67
2022-08-26T10:26:19.876Z,14.47
2022-08-26T10:28:53.461Z,17.00
2022-08-26T10:31:28.578Z,16.67
2022-08-26T10:34:00.102Z,14.47
2022-08-26T10:37:13.522Z,18.00
2022-08-26T10:39:45.998Z,16.53
2022-08-26T10:42:20.481Z,19.60
2022-08-26T10:44:53.863Z,16.50
2022-08-26T10:47:32.531Z,12.93
2022-08-26T10:50:03.329Z,17.77
2022-08-26T10:52:41.349Z,15.83
2022-08-26T10:55:17.895Z,18.80
2022-08-26T10:57:52.088Z,18.10
2022-08-26T11:00:44.027Z,14.03
2022-08-26T11:03:31.500Z,15.30
2022-08-26T11:06:24.023Z,17.37
2022-08-26T11:08:54.270Z,15.50
2022-08-26T11:11:45.373Z,19.83
2022-08-26T11:14:42.028Z,17.70
2022-08-26T11:17:59.999Z,25.60
2022-08-26T11:20:37.533Z,13.63
2022-08-26T11:23:45.119Z,20.90
2022-08-26T11:26:35.831Z,19.40
2022-08-26T11:29:13.539Z,16.73
2022-08-26T11:31:57.171Z,11.03
2022-08-26T11:34:58.361Z,11.20
2022-08-26T11:37:33.998Z,11.27
2022-08-26T11:40:05.289Z,12.67
2022-08-26T11:42:37.899Z,9.10
2022-08-26T11:45:18.542Z,13.67
2022-08-26T11:47:49.235Z,12.87
2022-08-26T11:50:23.575Z,9.70
2022-08-26T11:52:53.701Z,12.13
2022-08-26T11:55:23.324Z,15.73
2022-08-26T11:57:54.766Z,11.63
2022-08-26T12:00:25.149Z,9.57
2022-08-26T12:02:55.610Z,9.43
2022-08-26T12:05:31.135Z,12.60
2022-08-26T12:08:05.209Z,17.87
2022-08-26T12:10:35.890Z,14.73
2022-08-26T12:13:06.266Z,8.70
2022-08-26T12:15:35.589Z,11.87
2022-08-26T12:18:28.983Z,21.87
2022-08-26T12:20:59.739Z,17.80
2022-08-26T12:23:38.109Z,9.73
2022-08-26T12:26:12.366Z,7.47
2022-08-26T12:28:46.203Z,17.67
2022-08-26T12:31:26.952Z,9.40
2022-08-26T12:33:56.174Z,10.20
2022-08-26T12:36:31.451Z,9.50
2022-08-26T12:39:08.733Z,9.40
2022-08-26T12:41:42.356Z,11.03
2022-08-26T12:44:11.037Z,11.83
2022-08-26T12:46:39.427Z,9.83
2022-08-26T12:49:13.982Z,8.47
2022-08-26T12:52:01.541Z,8.33
2022-08-26T12:54:46.892Z,9.10
2022-08-26T12:57:15.394Z,8.43
2022-08-26T12:59:44.167Z,10.33
2022-08-26T13:02:12.647Z,9.73
2022-08-26T13:04:42.585Z,10.90
2022-08-26T13:07:27.143Z,6.27
2022-08-26T13:09:57.153Z,15.47
2022-08-26T13:12:30.588Z,7.63
2022-08-26T13:15:01.850Z,9.60
2022-08-26T13:17:35.009Z,11.73
2022-08-26T13:20:04.568Z,8.90
2022-08-26T13:22:36.071Z,8.03
2022-08-26T13:25:08.975Z,12.30
2022-08-26T13:27:37.384Z,7.70
2022-08-26T13:30:10.116Z,10.13
2022-08-26T13:32:43.702Z,10.37
2022-08-26T13:35:12.797Z,9.63
2022-08-26T13:37:52.092Z,5.63
2022-08-26T13:40:21.042Z,9.93
2022-08-26T13:42:50.138Z,8.30
2022-08-26T13:45:18.638Z,8.13
2022-08-26T13:47:49.070Z,9.97
2022-08-26T13:50:17.538Z,15.67
2022-08-26T13:52:47.589Z,10.07
2022-08-26T13:55:15.972Z,15.07
2022-08-26T13:57:44.512Z,8.83
2022-08-26T14:00:15.045Z,9.87
2022-08-26T14:02:43.925Z,9.00
2022-08-26T14:05:12.911Z,7.43
2022-08-26T14:07:42.047Z,7.73
2022-08-26T14:10:12.257Z,13.10
2022-08-26T14:12:41.757Z,5.47
2022-08-26T14:15:10.647Z,9.93
2022-08-26T14:17:38.996Z,7.03
2022-08-26T14:20:10.660Z,12.20
2022-08-26T14:22:43.777Z,7.77
2022-08-26T14:25:27.525Z,8.00
2022-08-26T14:27:56.855Z,14.53
2022-08-26T14:30:25.417Z,9.37
2022-08-26T14:33:03.162Z,7.87
2022-08-26T14:35:32.193Z,8.70
2022-08-26T14:38:00.910Z,8.17
2022-08-26T14:40:34.022Z,11.10
2022-08-26T14:43:10.790Z,8.80
2022-08-26T14:48:53.916Z,10.43
2022-08-26T14:54:22.209Z,6.90
2022-08-26T14:56:53.805Z,7.80
2022-08-26T15:05:16.978Z,8.00
2022-08-26T15:07:45.333Z,6.83
2022-08-26T15:10:15.385Z,7.20
2022-08-26T15:12:45.369Z,7.10
2022-08-26T15:15:18.979Z,10.37
2022-08-26T15:17:47.582Z,7.47
2022-08-26T15:23:06.221Z,10.80
2022-08-26T15:28:26.039Z,15.90
2022-08-26T15:34:02.725Z,15.33
2022-08-26T15:39:13.550Z,26.40
2022-08-26T15:41:46.506Z,14.27
2022-08-26T15:44:58.084Z,12.93
2022-08-26T15:47:27.889Z,11.80
2022-08-26T15:49:56.886Z,17.53
2022-08-26T15:52:25.985Z,11.23
2022-08-26T15:54:57.636Z,12.67
2022-08-26T15:57:26.181Z,13.73
2022-08-26T16:00:00.775Z,11.23
2022-08-26T16:02:36.784Z,9.73
2022-08-26T16:05:08.659Z,10.53
2022-08-26T16:07:37.151Z,14.87
2022-08-26T16:10:05.595Z,15.53
2022-08-26T16:12:33.918Z,12.10
2022-08-26T16:15:02.389Z,15.33
2022-08-26T16:17:30.704Z,14.30
2022-08-26T16:20:00.848Z,11.00
2022-08-26T16:22:29.306Z,11.00
2022-08-26T16:25:01.737Z,7.47
2022-08-26T16:27:30.223Z,15.37
2022-08-26T16:30:01.431Z,8.33
2022-08-26T16:32:31.360Z,12.60
2022-08-26T16:35:18.537Z,15.60
2022-08-26T16:37:51.700Z,15.90
2022-08-26T16:40:20.491Z,18.57
2022-08-26T16:42:49.159Z,10.60
2022-08-26T16:45:19.237Z,12.67
2022-08-26T16:47:52.001Z,11.43
2022-08-26T16:50:24.483Z,8.70
2022-08-26T16:52:55.650Z,9.97
2022-08-26T16:55:24.624Z,14.03
2022-08-26T16:57:53.278Z,11.23
2022-08-26T17:00:27.909Z,11.90
2022-08-26T17:02:56.506Z,14.67
2022-08-26T17:05:27.138Z,12.07
2022-08-26T17:07:55.818Z,9.63
2022-08-26T17:10:26.858Z,10.23
2022-08-26T17:12:55.668Z,11.27
2022-08-26T17:15:24.790Z,9.43
2022-08-26T17:17:53.500Z,11.43
2022-08-26T17:20:23.169Z,12.30
2022-08-26T17:22:54.341Z,15.40
2022-08-26T17:25:25.412Z,18.83
2022-08-26T17:27:54.309Z,16.33
2022-08-26T17:30:23.493Z,12.93
2022-08-26T17:32:52.987Z,11.50
2022-08-26T17:35:21.753Z,19.20
2022-08-26T17:37:49.855Z,13.00
2022-08-26T17:40:23.089Z,13.07
2022-08-26T17:42:51.620Z,15.67
2022-08-26T17:47:56.049Z,9.93
2022-08-26T17:50:25.426Z,14.33
2022-08-26T17:52:53.763Z,12.07
2022-08-26T17:55:23.542Z,14.43
2022-08-26T17:57:53.267Z,12.40
2022-08-26T18:00:26.688Z,12.70
2022-08-26T18:02:58.233Z,11.73
2022-08-26T18:05:26.668Z,15.87
2022-08-26T18:07:55.229Z,14.67
2022-08-26T18:10:26.063Z,11.27
2022-08-26T18:12:54.479Z,11.07
2022-08-26T18:15:22.988Z,15.73
2022-08-26T18:17:51.526Z,15.60
2022-08-26T18:20:20.709Z,19.67
2022-08-26T18:22:49.856Z,15.17
2022-08-26T18:25:19.015Z,14.83
2022-08-26T18:27:48.827Z,15.93
2022-08-26T18:30:20.664Z,19.60
2022-08-26T18:32:49.058Z,13.50
2022-08-26T18:35:17.833Z,13.87
2022-08-26T18:37:46.375Z,11.63
2022-08-26T18:40:16.288Z,14.47
2022-08-26T18:42:44.696Z,11.43
2022-08-26T18:45:17.648Z,12.33
2022-08-26T18:47:45.912Z,12.93
2022-08-26T18:50:14.232Z,13.43
2022-08-26T18:52:43.738Z,15.27
2022-08-26T18:55:12.353Z,14.10
2022-08-26T18:57:40.673Z,15.00
2022-08-26T19:00:10.579Z,9.57
2022-08-26T19:02:40.346Z,13.83
2022-08-26T19:05:09.479Z,11.00
2022-08-26T19:07:39.708Z,15.77
2022-08-26T19:10:08.524Z,13.17
2022-08-26T19:12:37.331Z,8.80
2022-08-26T19:15:06.236Z,9.83
2022-08-26T19:17:34.518Z,6.10
2022-08-26T19:20:04.418Z,6.87
2022-08-26T19:22:32.796Z,2.77
2022-08-26T19:25:01.361Z,4.57
2022-08-26T19:27:29.756Z,10.93
2022-08-26T19:29:58.457Z,8.23
2022-08-26T19:32:27.434Z,6.00
2022-08-26T19:34:55.721Z,7.87
2022-08-26T19:37:25.385Z,13.73
2022-08-26T19:39:53.414Z,13.97
2022-08-26T19:42:21.816Z,7.50
2022-08-26T19:45:11.052Z,8.13
2022-08-26T19:47:53.554Z,5.87
2022-08-26T19:50:22.486Z,7.30
2022-08-26T19:52:52.496Z,5.87
2022-08-26T19:55:22.496Z,4.67
2022-08-26T19:57:52.460Z,10.10
2022-08-26T20:00:24.750Z,7.43
2022-08-26T20:02:53.617Z,7.33
2022-08-26T20:05:23.625Z,6.07
2022-08-26T20:07:53.806Z,5.10
2022-08-26T20:13:07.099Z,4.57
2022-08-26T20:15:37.373Z,8.23
2022-08-26T20:18:25.685Z,9.43
2022-08-26T20:21:13.643Z,6.83
2022-08-26T20:23:45.586Z,4.50
2022-08-26T20:26:14.144Z,7.43
2022-08-26T20:28:42.481Z,7.17
2022-08-26T20:31:11.028Z,6.57
2022-08-26T20:33:46.192Z,5.90
2022-08-26T20:36:15.930Z,9.03
2022-08-26T20:41:41.546Z,10.57
2022-08-26T20:44:10.948Z,12.67
2022-08-26T20:46:40.722Z,6.73
2022-08-26T20:49:09.179Z,7.37
2022-08-26T20:51:40.600Z,5.40
2022-08-26T20:54:14.032Z,9.37
2022-08-26T20:56:42.624Z,9.20
2022-08-26T20:59:11.164Z,5.83
2022-08-26T21:01:42.388Z,11.77
2022-08-26T21:04:13.989Z,9.30
2022-08-26T21:06:46.605Z,6.40
2022-08-26T21:09:25.817Z,6.00
2022-08-26T21:11:55.244Z,8.67
2022-08-26T21:14:25.981Z,6.10
2022-08-26T21:16:54.836Z,8.33
2022-08-26T21:19:23.318Z,10.03
2022-08-26T21:21:51.963Z,9.03
2022-08-26T21:24:20.326Z,5.10
2022-08-26T21:26:50.106Z,6.47
2022-08-26T21:29:19.050Z,6.03
2022-08-26T21:31:47.669Z,7.43
2022-08-26T21:34:16.395Z,7.97
2022-08-26T21:36:44.753Z,6.83
2022-08-26T21:39:13.230Z,8.70
2022-08-26T21:41:42.029Z,10.07
2022-08-26T21:44:12.101Z,5.93
2022-08-26T21:46:40.843Z,9.83
2022-08-26T21:49:10.668Z,9.20
2022-08-26T21:51:41.340Z,7.37
2022-08-26T21:54:11.391Z,7.03
2022-08-26T21:56:46.607Z,9.97
2022-08-26T21:59:17.947Z,8.23
2022-08-26T22:01:46.294Z,6.50
2022-08-26T22:04:14.703Z,7.97
2022-08-26T22:06:44.701Z,7.57
2022-08-26T22:09:13.989Z,7.03
2022-08-26T22:11:42.862Z,10.10
2022-08-26T22:14:11.422Z,7.17
2022-08-26T22:16:41.214Z,6.97
2022-08-26T22:19:19.849Z,6.23
2022-08-26T22:21:49.455Z,6.53
2022-08-26T22:24:17.779Z,6.97
2022-08-26T22:26:46.090Z,6.10
2022-08-26T22:29:14.626Z,14.63
2022-08-26T22:31:44.402Z,8.00
2022-08-26T22:34:15.174Z,6.80
2022-08-26T22:36:46.337Z,9.33
2022-08-26T22:39:15.581Z,8.23
2022-08-26T22:41:44.110Z,8.40
2022-08-26T22:44:13.430Z,12.10
2022-08-26T22:46:44.306Z,13.30
2022-08-26T22:49:15.789Z,11.17
2022-08-26T22:51:44.610Z,15.97
2022-08-26T22:54:13.542Z,12.97
2022-08-26T22:56:42.034Z,14.53
2022-08-26T22:59:10.615Z,11.27
2022-08-26T23:01:41.336Z,13.13
2022-08-26T23:04:12.210Z,10.87
2022-08-26T23:06:43.084Z,9.47
2022-08-26T23:09:11.630Z,12.73
2022-08-26T23:11:42.172Z,11.37
2022-08-26T23:14:11.094Z,10.77
2022-08-26T23:16:41.926Z,12.20
2022-08-26T23:19:12.029Z,10.47
2022-08-26T23:21:40.338Z,13.70
2022-08-26T23:24:09.077Z,11.37
2022-08-26T23:26:38.430Z,17.87
2022-08-26T23:29:06.805Z,14.17
2022-08-26T23:31:35.376Z,12.20
2022-08-26T23:34:21.116Z,10.93
2022-08-26T23:36:51.058Z,14.33
2022-08-26T23:39:19.393Z,14.67
2022-08-26T23:41:48.055Z,11.70
2022-08-26T23:44:16.783Z,12.13
2022-08-26T23:46:45.219Z,15.13
2022-08-26T23:49:13.517Z,11.30
2022-08-26T23:51:59.403Z,15.80
2022-08-26T23:54:29.165Z,11.27
2022-08-26T23:56:57.551Z,15.03
2022-08-26T23:59:27.301Z,11.00
